sensor_id;sensor_type;location;lat;lon;timestamp;P1;durP1;ratioP1;P2;durP2;ratioP2
10811;SDS011;5458;51.496;7.334;2022-12-20T00:00:12;3.10;;;2.83;;
10811;SDS011;5458;51.496;7.334;2022-12-20T00:02:38;4.05;;;2.83;;
10811;SDS011;5458;51.496;7.334;2022-12-20T00:05:03;3.78;;;3.15;;
10811;SDS011;5458;51.496;7.334;2022-12-20T00:07:29;3.20;;;2.88;;
10811;SDS011;5458;51.496;7.334;2022-12-20T00:09:55;2.78;;;2.35;;
10811;SDS011;5458;51.496;7.334;2022-12-20T00:12:20;2.90;;;2.58;;
10811;SDS011;5458;51.496;7.334;2022-12-20T00:14:46;2.97;;;2.45;;
10811;SDS011;5458;51.496;7.334;2022-12-20T00:17:11;3.65;;;2.95;;
10811;SDS011;5458;51.496;7.334;2022-12-20T00:19:37;2.78;;;2.58;;
10811;SDS011;5458;51.496;7.334;2022-12-20T00:22:02;3.47;;;2.45;;
10811;SDS011;5458;51.496;7.334;2022-12-20T00:24:28;3.35;;;3.05;;
10811;SDS011;5458;51.496;7.334;2022-12-20T00:26:54;4.38;;;2.47;;
10811;SDS011;5458;51.496;7.334;2022-12-20T00:29:19;2.80;;;2.60;;
10811;SDS011;5458;51.496;7.334;2022-12-20T00:31:45;2.88;;;2.42;;
10811;SDS011;5458;51.496;7.334;2022-12-20T00:34:10;2.53;;;2.33;;
10811;SDS011;5458;51.496;7.334;2022-12-20T00:36:36;2.80;;;2.60;;
10811;SDS011;5458;51.496;7.334;2022-12-20T00:39:04;2.35;;;2.15;;
10811;SDS011;5458;51.496;7.334;2022-12-20T00:41:30;2.60;;;2.40;;
10811;SDS011;5458;51.496;7.334;2022-12-20T00:43:58;4.13;;;2.55;;
10811;SDS011;5458;51.496;7.334;2022-12-20T00:46:24;2.50;;;2.30;;
10811;SDS011;5458;51.496;7.334;2022-12-20T00:48:50;2.55;;;1.88;;
10811;SDS011;5458;51.496;7.334;2022-12-20T00:51:20;4.35;;;2.20;;
10811;SDS011;5458;51.496;7.334;2022-12-20T00:53:47;2.38;;;2.15;;
10811;SDS011;5458;51.496;7.334;2022-12-20T00:56:13;3.15;;;2.17;;
10811;SDS011;5458;51.496;7.334;2022-12-20T00:58:40;3.92;;;3.15;;
10811;SDS011;5458;51.496;7.334;2022-12-20T01:01:13;3.20;;;2.40;;
10811;SDS011;5458;51.496;7.334;2022-12-20T01:03:44;2.55;;;2.35;;
10811;SDS011;5458;51.496;7.334;2022-12-20T01:06:10;3.33;;;2.63;;
10811;SDS011;5458;51.496;7.334;2022-12-20T01:08:35;2.88;;;2.65;;
10811;SDS011;5458;51.496;7.334;2022-12-20T01:11:03;4.75;;;2.35;;
10811;SDS011;5458;51.496;7.334;2022-12-20T01:13:40;2.50;;;2.00;;
10811;SDS011;5458;51.496;7.334;2022-12-20T01:16:13;4.05;;;2.60;;
10811;SDS011;5458;51.496;7.334;2022-12-20T01:18:45;4.97;;;2.45;;
10811;SDS011;5458;51.496;7.334;2022-12-20T01:21:12;2.95;;;2.00;;
10811;SDS011;5458;51.496;7.334;2022-12-20T01:23:39;2.20;;;2.00;;
10811;SDS011;5458;51.496;7.334;2022-12-20T01:26:06;3.38;;;2.25;;
10811;SDS011;5458;51.496;7.334;2022-12-20T01:28:34;4.68;;;2.97;;
10811;SDS011;5458;51.496;7.334;2022-12-20T01:31:00;3.03;;;2.17;;
10811;SDS011;5458;51.496;7.334;2022-12-20T01:33:26;2.17;;;2.03;;
10811;SDS011;5458;51.496;7.334;2022-12-20T01:35:59;2.45;;;2.25;;
10811;SDS011;5458;51.496;7.334;2022-12-20T01:38:27;2.53;;;1.95;;
10811;SDS011;5458;51.496;7.334;2022-12-20T01:40:53;2.75;;;2.17;;
10811;SDS011;5458;51.496;7.334;2022-12-20T01:43:20;2.88;;;2.58;;
10811;SDS011;5458;51.496;7.334;2022-12-20T01:45:46;2.28;;;2.08;;
10811;SDS011;5458;51.496;7.334;2022-12-20T01:48:13;3.33;;;2.10;;
10811;SDS011;5458;51.496;7.334;2022-12-20T01:50:42;2.70;;;2.10;;
10811;SDS011;5458;51.496;7.334;2022-12-20T01:53:10;2.92;;;2.08;;
10811;SDS011;5458;51.496;7.334;2022-12-20T01:55:36;2.28;;;2.08;;
10811;SDS011;5458;51.496;7.334;2022-12-20T01:58:02;2.38;;;2.17;;
10811;SDS011;5458;51.496;7.334;2022-12-20T02:00:30;2.58;;;2.40;;
10811;SDS011;5458;51.496;7.334;2022-12-20T02:02:57;3.92;;;2.47;;
10811;SDS011;5458;51.496;7.334;2022-12-20T02:05:25;2.75;;;2.10;;
10811;SDS011;5458;51.496;7.334;2022-12-20T02:07:51;3.22;;;2.55;;
10811;SDS011;5458;51.496;7.334;2022-12-20T02:10:20;3.10;;;2.40;;
10811;SDS011;5458;51.496;7.334;2022-12-20T02:12:48;3.90;;;2.67;;
10811;SDS011;5458;51.496;7.334;2022-12-20T02:15:30;2.75;;;2.38;;
10811;SDS011;5458;51.496;7.334;2022-12-20T02:21:06;3.03;;;2.30;;
10811;SDS011;5458;51.496;7.334;2022-12-20T02:34:38;2.40;;;2.17;;
10811;SDS011;5458;51.496;7.334;2022-12-20T02:37:05;4.35;;;2.90;;
10811;SDS011;5458;51.496;7.334;2022-12-20T02:39:31;2.88;;;2.67;;
10811;SDS011;5458;51.496;7.334;2022-12-20T02:42:00;3.75;;;2.55;;
10811;SDS011;5458;51.496;7.334;2022-12-20T02:44:36;6.40;;;3.13;;
10811;SDS011;5458;51.496;7.334;2022-12-20T02:47:35;4.28;;;3.53;;
10811;SDS011;5458;51.496;7.334;2022-12-20T02:50:07;3.33;;;2.15;;
10811;SDS011;5458;51.496;7.334;2022-12-20T02:52:34;3.15;;;2.75;;
10811;SDS011;5458;51.496;7.334;2022-12-20T02:55:00;4.05;;;2.85;;
10811;SDS011;5458;51.496;7.334;2022-12-20T02:57:41;3.55;;;2.90;;
10811;SDS011;5458;51.496;7.334;2022-12-20T03:00:19;3.72;;;2.65;;
10811;SDS011;5458;51.496;7.334;2022-12-20T03:02:47;3.22;;;2.92;;
10811;SDS011;5458;51.496;7.334;2022-12-20T03:05:34;2.90;;;2.65;;
10811;SDS011;5458;51.496;7.334;2022-12-20T03:08:07;2.85;;;2.65;;
10811;SDS011;5458;51.496;7.334;2022-12-20T03:10:32;3.17;;;2.92;;
10811;SDS011;5458;51.496;7.334;2022-12-20T03:12:58;5.30;;;3.28;;
10811;SDS011;5458;51.496;7.334;2022-12-20T03:15:23;3.47;;;3.17;;
10811;SDS011;5458;51.496;7.334;2022-12-20T03:17:49;3.40;;;3.10;;
10811;SDS011;5458;51.496;7.334;2022-12-20T03:20:15;4.68;;;2.60;;
10811;SDS011;5458;51.496;7.334;2022-12-20T03:22:40;4.30;;;3.47;;
10811;SDS011;5458;51.496;7.334;2022-12-20T03:25:06;3.70;;;2.95;;
10811;SDS011;5458;51.496;7.334;2022-12-20T03:27:32;3.20;;;2.90;;
10811;SDS011;5458;51.496;7.334;2022-12-20T03:29:58;4.45;;;2.92;;
10811;SDS011;5458;51.496;7.334;2022-12-20T03:32:23;2.97;;;2.78;;
10811;SDS011;5458;51.496;7.334;2022-12-20T03:34:49;3.30;;;3.00;;
10811;SDS011;5458;51.496;7.334;2022-12-20T03:37:14;4.03;;;3.30;;
10811;SDS011;5458;51.496;7.334;2022-12-20T03:39:40;4.40;;;3.33;;
10811;SDS011;5458;51.496;7.334;2022-12-20T03:42:05;6.57;;;3.47;;
10811;SDS011;5458;51.496;7.334;2022-12-20T03:44:31;3.72;;;3.22;;
10811;SDS011;5458;51.496;7.334;2022-12-20T03:46:57;3.78;;;3.47;;
10811;SDS011;5458;51.496;7.334;2022-12-20T03:49:22;6.03;;;4.28;;
10811;SDS011;5458;51.496;7.334;2022-12-20T03:51:48;5.40;;;3.70;;
10811;SDS011;5458;51.496;7.334;2022-12-20T03:54:13;3.97;;;3.28;;
10811;SDS011;5458;51.496;7.334;2022-12-20T03:56:39;4.07;;;3.67;;
10811;SDS011;5458;51.496;7.334;2022-12-20T03:59:04;7.03;;;3.88;;
10811;SDS011;5458;51.496;7.334;2022-12-20T04:01:30;4.13;;;3.40;;
10811;SDS011;5458;51.496;7.334;2022-12-20T04:04:00;5.15;;;3.80;;
10811;SDS011;5458;51.496;7.334;2022-12-20T04:06:26;4.18;;;3.60;;
10811;SDS011;5458;51.496;7.334;2022-12-20T04:08:52;5.03;;;4.13;;
10811;SDS011;5458;51.496;7.334;2022-12-20T04:11:17;3.83;;;3.53;;
10811;SDS011;5458;51.496;7.334;2022-12-20T04:16:10;4.90;;;3.50;;
10811;SDS011;5458;51.496;7.334;2022-12-20T04:18:36;4.25;;;3.45;;
10811;SDS011;5458;51.496;7.334;2022-12-20T04:21:02;3.97;;;3.58;;
10811;SDS011;5458;51.496;7.334;2022-12-20T04:23:28;3.70;;;3.00;;
10811;SDS011;5458;51.496;7.334;2022-12-20T04:25:54;4.22;;;3.33;;
10811;SDS011;5458;51.496;7.334;2022-12-20T04:28:20;4.63;;;3.47;;
10811;SDS011;5458;51.496;7.334;2022-12-20T04:30:45;4.05;;;3.58;;
10811;SDS011;5458;51.496;7.334;2022-12-20T04:33:11;6.15;;;3.35;;
10811;SDS011;5458;51.496;7.334;2022-12-20T04:35:36;4.05;;;3.40;;
10811;SDS011;5458;51.496;7.334;2022-12-20T04:38:02;3.92;;;3.53;;
10811;SDS011;5458;51.496;7.334;2022-12-20T04:40:28;4.45;;;3.40;;
10811;SDS011;5458;51.496;7.334;2022-12-20T04:42:54;5.65;;;3.45;;
10811;SDS011;5458;51.496;7.334;2022-12-20T04:45:19;4.22;;;3.10;;
10811;SDS011;5458;51.496;7.334;2022-12-20T04:47:45;4.22;;;3.55;;
10811;SDS011;5458;51.496;7.334;2022-12-20T04:50:10;3.60;;;3.30;;
10811;SDS011;5458;51.496;7.334;2022-12-20T04:52:36;5.30;;;3.83;;
10811;SDS011;5458;51.496;7.334;2022-12-20T04:55:20;4.47;;;3.63;;
10811;SDS011;5458;51.496;7.334;2022-12-20T04:57:46;3.58;;;3.03;;
10811;SDS011;5458;51.496;7.334;2022-12-20T05:00:13;5.30;;;3.72;;
10811;SDS011;5458;51.496;7.334;2022-12-20T05:02:39;3.88;;;3.58;;
10811;SDS011;5458;51.496;7.334;2022-12-20T05:05:05;3.85;;;3.42;;
10811;SDS011;5458;51.496;7.334;2022-12-20T05:07:31;5.75;;;3.72;;
10811;SDS011;5458;51.496;7.334;2022-12-20T05:09:57;4.88;;;4.03;;
10811;SDS011;5458;51.496;7.334;2022-12-20T05:12:22;6.18;;;3.28;;
10811;SDS011;5458;51.496;7.334;2022-12-20T05:14:48;5.20;;;3.60;;
10811;SDS011;5458;51.496;7.334;2022-12-20T05:17:14;3.97;;;3.50;;
10811;SDS011;5458;51.496;7.334;2022-12-20T05:19:39;3.72;;;3.42;;
10811;SDS011;5458;51.496;7.334;2022-12-20T05:22:05;5.15;;;3.83;;
10811;SDS011;5458;51.496;7.334;2022-12-20T05:24:49;4.78;;;3.30;;
10811;SDS011;5458;51.496;7.334;2022-12-20T05:27:33;4.00;;;3.70;;
10811;SDS011;5458;51.496;7.334;2022-12-20T05:29:58;3.72;;;3.42;;
10811;SDS011;5458;51.496;7.334;2022-12-20T05:32:24;4.28;;;3.90;;
10811;SDS011;5458;51.496;7.334;2022-12-20T05:34:49;4.72;;;3.50;;
10811;SDS011;5458;51.496;7.334;2022-12-20T05:37:15;3.85;;;3.55;;
10811;SDS011;5458;51.496;7.334;2022-12-20T05:39:41;4.10;;;3.70;;
10811;SDS011;5458;51.496;7.334;2022-12-20T05:42:06;4.88;;;4.38;;
10811;SDS011;5458;51.496;7.334;2022-12-20T05:44:32;5.72;;;3.83;;
10811;SDS011;5458;51.496;7.334;2022-12-20T05:46:57;5.18;;;3.95;;
10811;SDS011;5458;51.496;7.334;2022-12-20T05:49:23;5.82;;;4.22;;
10811;SDS011;5458;51.496;7.334;2022-12-20T05:51:49;4.95;;;3.90;;
10811;SDS011;5458;51.496;7.334;2022-12-20T05:54:14;5.13;;;4.57;;
10811;SDS011;5458;51.496;7.334;2022-12-20T05:56:40;4.28;;;3.85;;
10811;SDS011;5458;51.496;7.334;2022-12-20T05:59:06;4.55;;;3.60;;
10811;SDS011;5458;51.496;7.334;2022-12-20T06:01:31;4.82;;;4.25;;
10811;SDS011;5458;51.496;7.334;2022-12-20T06:03:57;4.50;;;4.00;;
10811;SDS011;5458;51.496;7.334;2022-12-20T06:06:23;6.28;;;4.47;;
10811;SDS011;5458;51.496;7.334;2022-12-20T06:08:48;5.63;;;3.88;;
10811;SDS011;5458;51.496;7.334;2022-12-20T06:11:14;4.25;;;3.92;;
10811;SDS011;5458;51.496;7.334;2022-12-20T06:13:40;4.95;;;4.05;;
10811;SDS011;5458;51.496;7.334;2022-12-20T06:16:05;4.07;;;3.67;;
10811;SDS011;5458;51.496;7.334;2022-12-20T06:18:31;5.57;;;3.97;;
10811;SDS011;5458;51.496;7.334;2022-12-20T06:20:56;4.35;;;3.95;;
10811;SDS011;5458;51.496;7.334;2022-12-20T06:23:22;6.32;;;3.70;;
10811;SDS011;5458;51.496;7.334;2022-12-20T06:25:48;4.05;;;3.72;;
10811;SDS011;5458;51.496;7.334;2022-12-20T06:28:13;5.05;;;3.70;;
10811;SDS011;5458;51.496;7.334;2022-12-20T06:30:50;3.33;;;3.03;;
10811;SDS011;5458;51.496;7.334;2022-12-20T06:33:16;5.32;;;3.85;;
10811;SDS011;5458;51.496;7.334;2022-12-20T06:35:42;4.78;;;3.03;;
10811;SDS011;5458;51.496;7.334;2022-12-20T06:38:07;4.15;;;3.28;;
10811;SDS011;5458;51.496;7.334;2022-12-20T06:40:33;4.65;;;3.20;;
10811;SDS011;5458;51.496;7.334;2022-12-20T06:42:58;4.13;;;3.80;;
10811;SDS011;5458;51.496;7.334;2022-12-20T06:45:24;3.90;;;3.45;;
10811;SDS011;5458;51.496;7.334;2022-12-20T06:47:50;3.97;;;3.50;;
10811;SDS011;5458;51.496;7.334;2022-12-20T06:50:15;4.32;;;3.78;;
10811;SDS011;5458;51.496;7.334;2022-12-20T06:52:41;5.10;;;3.67;;
10811;SDS011;5458;51.496;7.334;2022-12-20T06:55:07;3.08;;;2.88;;
10811;SDS011;5458;51.496;7.334;2022-12-20T06:57:32;4.13;;;3.13;;
10811;SDS011;5458;51.496;7.334;2022-12-20T06:59:58;3.58;;;3.17;;
10811;SDS011;5458;51.496;7.334;2022-12-20T07:02:24;3.40;;;2.75;;
10811;SDS011;5458;51.496;7.334;2022-12-20T07:04:49;4.47;;;2.55;;
10811;SDS011;5458;51.496;7.334;2022-12-20T07:07:15;4.65;;;3.28;;
10811;SDS011;5458;51.496;7.334;2022-12-20T07:09:41;3.20;;;3.00;;
10811;SDS011;5458;51.496;7.334;2022-12-20T07:12:07;3.55;;;2.95;;
10811;SDS011;5458;51.496;7.334;2022-12-20T07:14:33;3.33;;;3.00;;
10811;SDS011;5458;51.496;7.334;2022-12-20T07:16:59;5.18;;;2.95;;
10811;SDS011;5458;51.496;7.334;2022-12-20T07:19:24;2.78;;;2.58;;
10811;SDS011;5458;51.496;7.334;2022-12-20T07:21:50;3.15;;;2.83;;
10811;SDS011;5458;51.496;7.334;2022-12-20T07:24:16;3.80;;;2.85;;
10811;SDS011;5458;51.496;7.334;2022-12-20T07:26:42;3.03;;;2.80;;
10811;SDS011;5458;51.496;7.334;2022-12-20T07:29:09;3.78;;;2.42;;
10811;SDS011;5458;51.496;7.334;2022-12-20T07:31:36;3.28;;;2.97;;
10811;SDS011;5458;51.496;7.334;2022-12-20T07:34:01;5.18;;;2.60;;
10811;SDS011;5458;51.496;7.334;2022-12-20T07:36:27;4.50;;;3.08;;
10811;SDS011;5458;51.496;7.334;2022-12-20T07:38:52;3.65;;;3.20;;
10811;SDS011;5458;51.496;7.334;2022-12-20T07:41:18;4.82;;;3.33;;
10811;SDS011;5458;51.496;7.334;2022-12-20T07:43:43;4.30;;;2.85;;
10811;SDS011;5458;51.496;7.334;2022-12-20T07:46:09;3.70;;;3.35;;
10811;SDS011;5458;51.496;7.334;2022-12-20T07:48:37;4.88;;;3.17;;
10811;SDS011;5458;51.496;7.334;2022-12-20T07:51:07;3.08;;;2.78;;
10811;SDS011;5458;51.496;7.334;2022-12-20T07:53:39;3.50;;;3.20;;
10811;SDS011;5458;51.496;7.334;2022-12-20T07:56:11;3.40;;;3.10;;
10811;SDS011;5458;51.496;7.334;2022-12-20T07:58:38;5.28;;;3.50;;
10811;SDS011;5458;51.496;7.334;2022-12-20T08:01:05;3.85;;;3.20;;
10811;SDS011;5458;51.496;7.334;2022-12-20T08:03:38;4.85;;;3.70;;
10811;SDS011;5458;51.496;7.334;2022-12-20T08:06:07;3.20;;;2.70;;
10811;SDS011;5458;51.496;7.334;2022-12-20T08:08:34;5.63;;;2.80;;
10811;SDS011;5458;51.496;7.334;2022-12-20T08:11:05;3.80;;;3.47;;
10811;SDS011;5458;51.496;7.334;2022-12-20T08:13:32;6.10;;;3.90;;
10811;SDS011;5458;51.496;7.334;2022-12-20T08:15:58;4.00;;;3.70;;
10811;SDS011;5458;51.496;7.334;2022-12-20T08:18:25;4.93;;;3.13;;
10811;SDS011;5458;51.496;7.334;2022-12-20T08:20:50;3.83;;;3.22;;
10811;SDS011;5458;51.496;7.334;2022-12-20T08:23:16;5.47;;;4.00;;
10811;SDS011;5458;51.496;7.334;2022-12-20T08:25:43;6.95;;;3.00;;
10811;SDS011;5458;51.496;7.334;2022-12-20T08:28:09;3.50;;;3.20;;
10811;SDS011;5458;51.496;7.334;2022-12-20T08:30:34;3.78;;;3.47;;
10811;SDS011;5458;51.496;7.334;2022-12-20T08:33:00;3.65;;;2.80;;
10811;SDS011;5458;51.496;7.334;2022-12-20T08:35:26;3.60;;;2.95;;
10811;SDS011;5458;51.496;7.334;2022-12-20T08:37:52;3.58;;;2.72;;
10811;SDS011;5458;51.496;7.334;2022-12-20T08:40:18;4.85;;;3.10;;
10811;SDS011;5458;51.496;7.334;2022-12-20T08:42:44;3.45;;;3.15;;
10811;SDS011;5458;51.496;7.334;2022-12-20T08:45:10;5.72;;;3.88;;
10811;SDS011;5458;51.496;7.334;2022-12-20T08:47:36;6.32;;;3.70;;
10811;SDS011;5458;51.496;7.334;2022-12-20T08:50:02;5.22;;;2.92;;
10811;SDS011;5458;51.496;7.334;2022-12-20T08:52:28;3.42;;;3.00;;
10811;SDS011;5458;51.496;7.334;2022-12-20T08:54:53;3.88;;;2.90;;
10811;SDS011;5458;51.496;7.334;2022-12-20T08:57:19;5.00;;;3.40;;
10811;SDS011;5458;51.496;7.334;2022-12-20T08:59:45;2.63;;;2.35;;
10811;SDS011;5458;51.496;7.334;2022-12-20T09:02:10;5.47;;;3.35;;
10811;SDS011;5458;51.496;7.334;2022-12-20T09:04:36;5.97;;;3.05;;
10811;SDS011;5458;51.496;7.334;2022-12-20T09:07:02;3.78;;;3.13;;
10811;SDS011;5458;51.496;7.334;2022-12-20T09:09:27;4.82;;;2.65;;
10811;SDS011;5458;51.496;7.334;2022-12-20T09:11:53;4.45;;;2.70;;
10811;SDS011;5458;51.496;7.334;2022-12-20T09:14:19;2.90;;;2.58;;
10811;SDS011;5458;51.496;7.334;2022-12-20T09:16:45;3.30;;;2.92;;
10811;SDS011;5458;51.496;7.334;2022-12-20T09:19:12;3.40;;;3.10;;
10811;SDS011;5458;51.496;7.334;2022-12-20T09:21:38;4.90;;;2.88;;
10811;SDS011;5458;51.496;7.334;2022-12-20T09:24:03;2.92;;;2.72;;
10811;SDS011;5458;51.496;7.334;2022-12-20T09:26:30;2.92;;;2.70;;
10811;SDS011;5458;51.496;7.334;2022-12-20T09:28:56;3.67;;;3.05;;
10811;SDS011;5458;51.496;7.334;2022-12-20T09:31:23;4.35;;;3.83;;
10811;SDS011;5458;51.496;7.334;2022-12-20T09:33:51;2.50;;;2.30;;
10811;SDS011;5458;51.496;7.334;2022-12-20T09:36:19;3.33;;;2.78;;
10811;SDS011;5458;51.496;7.334;2022-12-20T09:38:46;4.82;;;2.45;;
10811;SDS011;5458;51.496;7.334;2022-12-20T09:41:21;5.00;;;2.90;;
10811;SDS011;5458;51.496;7.334;2022-12-20T09:43:56;3.40;;;2.88;;
10811;SDS011;5458;51.496;7.334;2022-12-20T09:46:22;4.45;;;2.50;;
10811;SDS011;5458;51.496;7.334;2022-12-20T09:48:49;3.05;;;2.83;;
10811;SDS011;5458;51.496;7.334;2022-12-20T09:54:19;3.05;;;2.80;;
10811;SDS011;5458;51.496;7.334;2022-12-20T09:56:57;3.83;;;2.42;;
10811;SDS011;5458;51.496;7.334;2022-12-20T09:59:30;4.07;;;2.80;;
10811;SDS011;5458;51.496;7.334;2022-12-20T10:01:59;4.43;;;2.85;;
10811;SDS011;5458;51.496;7.334;2022-12-20T10:04:28;2.45;;;2.17;;
10811;SDS011;5458;51.496;7.334;2022-12-20T10:07:04;3.35;;;2.53;;
10811;SDS011;5458;51.496;7.334;2022-12-20T10:10:02;3.05;;;2.70;;
10811;SDS011;5458;51.496;7.334;2022-12-20T10:15:32;3.08;;;2.85;;
10811;SDS011;5458;51.496;7.334;2022-12-20T10:23:32;2.60;;;2.40;;
10811;SDS011;5458;51.496;7.334;2022-12-20T10:26:10;4.45;;;2.20;;
10811;SDS011;5458;51.496;7.334;2022-12-20T10:28:37;2.35;;;2.15;;
10811;SDS011;5458;51.496;7.334;2022-12-20T10:31:13;4.05;;;2.70;;
10811;SDS011;5458;51.496;7.334;2022-12-20T10:33:40;3.05;;;2.78;;
10811;SDS011;5458;51.496;7.334;2022-12-20T10:38:55;5.68;;;3.22;;
10811;SDS011;5458;51.496;7.334;2022-12-20T10:41:26;4.85;;;2.90;;
10811;SDS011;5458;51.496;7.334;2022-12-20T10:44:01;2.50;;;2.30;;
10811;SDS011;5458;51.496;7.334;2022-12-20T10:46:39;4.45;;;2.70;;
10811;SDS011;5458;51.496;7.334;2022-12-20T10:52:00;5.00;;;2.83;;
10811;SDS011;5458;51.496;7.334;2022-12-20T10:54:40;4.35;;;2.58;;
10811;SDS011;5458;51.496;7.334;2022-12-20T10:59:49;2.55;;;2.35;;
10811;SDS011;5458;51.496;7.334;2022-12-20T11:02:31;3.72;;;2.53;;
10811;SDS011;5458;51.496;7.334;2022-12-20T11:05:23;4.13;;;2.35;;
10811;SDS011;5458;51.496;7.334;2022-12-20T11:07:52;4.03;;;2.55;;
10811;SDS011;5458;51.496;7.334;2022-12-20T11:10:19;2.75;;;2.17;;
10811;SDS011;5458;51.496;7.334;2022-12-20T11:12:53;2.72;;;2.53;;
10811;SDS011;5458;51.496;7.334;2022-12-20T11:15:22;2.90;;;1.80;;
10811;SDS011;5458;51.496;7.334;2022-12-20T11:17:55;3.13;;;2.83;;
10811;SDS011;5458;51.496;7.334;2022-12-20T11:31:27;4.13;;;2.17;;
10811;SDS011;5458;51.496;7.334;2022-12-20T11:39:49;2.60;;;2.28;;
10811;SDS011;5458;51.496;7.334;2022-12-20T11:52:59;3.20;;;2.20;;
10811;SDS011;5458;51.496;7.334;2022-12-20T11:55:35;2.38;;;1.92;;
10811;SDS011;5458;51.496;7.334;2022-12-20T11:58:10;2.35;;;1.90;;
10811;SDS011;5458;51.496;7.334;2022-12-20T12:00:43;3.50;;;2.10;;
10811;SDS011;5458;51.496;7.334;2022-12-20T12:03:22;5.28;;;2.53;;
10811;SDS011;5458;51.496;7.334;2022-12-20T12:06:17;2.25;;;1.95;;
10811;SDS011;5458;51.496;7.334;2022-12-20T12:08:49;4.90;;;2.28;;
10811;SDS011;5458;51.496;7.334;2022-12-20T12:11:29;2.30;;;2.10;;
10811;SDS011;5458;51.496;7.334;2022-12-20T12:13:59;2.90;;;2.33;;
10811;SDS011;5458;51.496;7.334;2022-12-20T12:16:38;3.35;;;2.05;;
10811;SDS011;5458;51.496;7.334;2022-12-20T12:19:10;2.53;;;2.05;;
10811;SDS011;5458;51.496;7.334;2022-12-20T12:21:48;2.20;;;2.00;;
10811;SDS011;5458;51.496;7.334;2022-12-20T12:24:21;2.83;;;2.20;;
10811;SDS011;5458;51.496;7.334;2022-12-20T12:26:54;3.72;;;2.65;;
10811;SDS011;5458;51.496;7.334;2022-12-20T12:29:22;3.30;;;1.83;;
10811;SDS011;5458;51.496;7.334;2022-12-20T12:31:50;2.65;;;2.13;;
10811;SDS011;5458;51.496;7.334;2022-12-20T12:45:27;2.22;;;2.00;;
10811;SDS011;5458;51.496;7.334;2022-12-20T12:48:46;4.38;;;2.63;;
10811;SDS011;5458;51.496;7.334;2022-12-20T12:51:43;4.40;;;3.13;;
10811;SDS011;5458;51.496;7.334;2022-12-20T12:54:24;2.75;;;2.55;;
10811;SDS011;5458;51.496;7.334;2022-12-20T12:56:59;2.38;;;2.15;;
10811;SDS011;5458;51.496;7.334;2022-12-20T13:04:30;4.53;;;2.58;;
10811;SDS011;5458;51.496;7.334;2022-12-20T13:07:27;4.10;;;2.40;;
10811;SDS011;5458;51.496;7.334;2022-12-20T13:09:55;2.85;;;2.20;;
10811;SDS011;5458;51.496;7.334;2022-12-20T13:20:23;3.40;;;2.35;;
10811;SDS011;5458;51.496;7.334;2022-12-20T13:25:41;4.03;;;2.42;;
10811;SDS011;5458;51.496;7.334;2022-12-20T13:30:45;2.75;;;2.47;;
10811;SDS011;5458;51.496;7.334;2022-12-20T13:33:54;3.30;;;3.00;;
10811;SDS011;5458;51.496;7.334;2022-12-20T13:36:04;2.92;;;2.55;;
10811;SDS011;5458;51.496;7.334;2022-12-20T13:38:57;3.83;;;2.65;;
10811;SDS011;5458;51.496;7.334;2022-12-20T13:49:37;9.23;;;6.55;;
10811;SDS011;5458;51.496;7.334;2022-12-20T13:54:43;6.25;;;4.05;;
10811;SDS011;5458;51.496;7.334;2022-12-20T13:57:13;2.80;;;2.60;;
10811;SDS011;5458;51.496;7.334;2022-12-20T13:59:43;3.42;;;2.92;;
10811;SDS011;5458;51.496;7.334;2022-12-20T14:02:29;2.95;;;2.70;;
10811;SDS011;5458;51.496;7.334;2022-12-20T14:05:04;3.08;;;2.13;;
10811;SDS011;5458;51.496;7.334;2022-12-20T14:07:34;3.70;;;2.80;;
10811;SDS011;5458;51.496;7.334;2022-12-20T14:10:03;3.15;;;2.38;;
10811;SDS011;5458;51.496;7.334;2022-12-20T14:12:41;4.22;;;3.40;;
10811;SDS011;5458;51.496;7.334;2022-12-20T14:18:03;3.60;;;3.05;;
10811;SDS011;5458;51.496;7.334;2022-12-20T14:20:32;5.90;;;3.88;;
10811;SDS011;5458;51.496;7.334;2022-12-20T14:23:01;3.50;;;2.83;;
10811;SDS011;5458;51.496;7.334;2022-12-20T14:27:59;5.68;;;4.30;;
10811;SDS011;5458;51.496;7.334;2022-12-20T14:30:25;9.48;;;6.47;;
10811;SDS011;5458;51.496;7.334;2022-12-20T14:32:56;6.55;;;4.88;;
10811;SDS011;5458;51.496;7.334;2022-12-20T14:35:22;7.28;;;4.00;;
10811;SDS011;5458;51.496;7.334;2022-12-20T14:37:52;4.40;;;3.33;;
10811;SDS011;5458;51.496;7.334;2022-12-20T14:40:20;3.67;;;2.83;;
10811;SDS011;5458;51.496;7.334;2022-12-20T14:42:46;9.18;;;6.38;;
10811;SDS011;5458;51.496;7.334;2022-12-20T14:47:37;3.20;;;2.90;;
10811;SDS011;5458;51.496;7.334;2022-12-20T14:50:26;7.22;;;4.53;;
10811;SDS011;5458;51.496;7.334;2022-12-20T14:52:56;5.85;;;3.70;;
10811;SDS011;5458;51.496;7.334;2022-12-20T14:55:32;3.88;;;3.47;;
10811;SDS011;5458;51.496;7.334;2022-12-20T14:58:01;4.47;;;3.78;;
10811;SDS011;5458;51.496;7.334;2022-12-20T15:00:54;5.38;;;3.35;;
10811;SDS011;5458;51.496;7.334;2022-12-20T15:03:20;5.20;;;3.92;;
10811;SDS011;5458;51.496;7.334;2022-12-20T15:05:48;9.00;;;4.03;;
10811;SDS011;5458;51.496;7.334;2022-12-20T15:08:26;6.93;;;4.30;;
10811;SDS011;5458;51.496;7.334;2022-12-20T15:13:33;6.30;;;4.38;;
10811;SDS011;5458;51.496;7.334;2022-12-20T15:19:09;6.47;;;4.88;;
10811;SDS011;5458;51.496;7.334;2022-12-20T15:21:38;5.40;;;4.82;;
10811;SDS011;5458;51.496;7.334;2022-12-20T15:24:13;7.20;;;4.35;;
10811;SDS011;5458;51.496;7.334;2022-12-20T15:26:42;7.35;;;6.05;;
10811;SDS011;5458;51.496;7.334;2022-12-20T15:29:11;7.07;;;4.95;;
10811;SDS011;5458;51.496;7.334;2022-12-20T15:31:41;8.80;;;6.15;;
10811;SDS011;5458;51.496;7.334;2022-12-20T15:34:14;7.97;;;6.13;;
10811;SDS011;5458;51.496;7.334;2022-12-20T15:36:42;6.18;;;4.78;;
10811;SDS011;5458;51.496;7.334;2022-12-20T15:39:08;4.82;;;4.43;;
10811;SDS011;5458;51.496;7.334;2022-12-20T15:41:36;6.65;;;5.07;;
10811;SDS011;5458;51.496;7.334;2022-12-20T15:44:09;7.97;;;4.55;;
10811;SDS011;5458;51.496;7.334;2022-12-20T15:46:38;7.82;;;4.82;;
10811;SDS011;5458;51.496;7.334;2022-12-20T15:49:03;6.18;;;5.38;;
10811;SDS011;5458;51.496;7.334;2022-12-20T15:51:30;7.22;;;4.85;;
10811;SDS011;5458;51.496;7.334;2022-12-20T15:53:58;5.93;;;4.15;;
10811;SDS011;5458;51.496;7.334;2022-12-20T15:56:25;6.85;;;5.07;;
10811;SDS011;5458;51.496;7.334;2022-12-20T15:58:52;7.10;;;5.78;;
10811;SDS011;5458;51.496;7.334;2022-12-20T16:01:24;5.57;;;4.35;;
10811;SDS011;5458;51.496;7.334;2022-12-20T16:03:53;5.57;;;5.07;;
10811;SDS011;5458;51.496;7.334;2022-12-20T16:06:18;5.18;;;4.65;;
10811;SDS011;5458;51.496;7.334;2022-12-20T16:08:44;6.28;;;5.05;;
10811;SDS011;5458;51.496;7.334;2022-12-20T16:11:18;6.03;;;4.78;;
10811;SDS011;5458;51.496;7.334;2022-12-20T16:13:46;6.60;;;4.72;;
10811;SDS011;5458;51.496;7.334;2022-12-20T16:16:18;6.47;;;4.38;;
10811;SDS011;5458;51.496;7.334;2022-12-20T16:18:45;7.22;;;4.10;;
10811;SDS011;5458;51.496;7.334;2022-12-20T16:21:18;6.70;;;4.85;;
10811;SDS011;5458;51.496;7.334;2022-12-20T16:23:46;6.65;;;5.00;;
10811;SDS011;5458;51.496;7.334;2022-12-20T16:26:14;10.27;;;6.28;;
10811;SDS011;5458;51.496;7.334;2022-12-20T16:28:45;8.30;;;5.10;;
10811;SDS011;5458;51.496;7.334;2022-12-20T16:31:28;9.27;;;5.20;;
10811;SDS011;5458;51.496;7.334;2022-12-20T16:33:57;10.13;;;5.53;;
10811;SDS011;5458;51.496;7.334;2022-12-20T16:36:30;6.85;;;5.70;;
10811;SDS011;5458;51.496;7.334;2022-12-20T16:38:56;10.02;;;6.18;;
10811;SDS011;5458;51.496;7.334;2022-12-20T16:41:26;11.35;;;7.30;;
10811;SDS011;5458;51.496;7.334;2022-12-20T16:43:54;10.77;;;6.90;;
10811;SDS011;5458;51.496;7.334;2022-12-20T16:46:22;11.13;;;6.68;;
10811;SDS011;5458;51.496;7.334;2022-12-20T16:48:51;8.32;;;6.38;;
10811;SDS011;5458;51.496;7.334;2022-12-20T16:53:47;10.27;;;7.60;;
10811;SDS011;5458;51.496;7.334;2022-12-20T16:56:13;9.27;;;6.90;;
10811;SDS011;5458;51.496;7.334;2022-12-20T16:58:39;11.05;;;7.10;;
10811;SDS011;5458;51.496;7.334;2022-12-20T17:01:04;6.47;;;5.65;;
10811;SDS011;5458;51.496;7.334;2022-12-20T17:03:31;6.55;;;5.03;;
10811;SDS011;5458;51.496;7.334;2022-12-20T17:05:57;8.63;;;6.63;;
10811;SDS011;5458;51.496;7.334;2022-12-20T17:08:22;13.07;;;8.02;;
10811;SDS011;5458;51.496;7.334;2022-12-20T17:10:48;8.27;;;6.40;;